Heidelberg, Pennsylvania
Current Conditions -  °F | °C
As of 6:51 AM on Sunday 23 Nov 2014 (Local Time) from KPIT Reporting Station
Broken Clouds Broken Clouds  
Wind Chill: 45°   Ceiling: 5500
Heat Index: 47°   Visibility: 10mi
Dew Point: 31°   Wind: 5mph
Humidity: 54%   Direction: 140°SE
Pressure: 30.09"   Gusts: NA
Location:  40.4095°N, 80.1154°W
Report Text: KPIT 231151Z 14004KT 10SM BKN055 BKN075 BKN095 08/M01 A3009 RMK AO2 SLP202 60000 70003 T00831006 10100 20078 55000
Loading
Personal Weather Stations






























Interactive Weather Map New forecast layout! Learn more

10-Day Weather Forecast

Advertisements
Track Severe Weather on mobile